• Join FlightAware (Why Join?)
  • Login
  • US Flag 
04:51PM EDT


 

Airport Tracker/Info


-or-


 

Live Flight TrackerFlight Track Log ✈ TAM3148 ✈ 07-May-2013 ✈ SBRJ / SDU - SBVT / VIX

Flight Track Log - Related Links

Times and Time Zones

All times are in EDT time to prevent confusion due to time zone crossing. See the TAM3148 flight status page for this flight to view local times or setup timezone preferences in your user account.

Time Position Orientation Groundspeed Altitude Reporting Facility
EDT Latitude Longitude Course Direction KTS MPH feet Rate Location/Type
03:34PM -22.9200 -43.1620 360° North 142 163 500  Level FlightAware
03:34PM -22.9260 -43.1580 148° Southeast 149 171 900 2,400 Climbing FlightAware
03:34PM -22.9330 -43.1500 134° Southeast 160 184 1,500 2,160 Climbing FlightAware
03:35PM -22.9410 -43.1390 128° Southeast 182 209 2,000 1,800 Climbing FlightAware
03:35PM -22.9470 -43.1270 119° Southeast 201 231 2,400 1,800 Climbing FlightAware
03:35PM -22.9480 -43.1120 94° East 221 254 2,900 3,000 Climbing FlightAware
03:36PM -22.9510 -43.0820 96° East 232 267 4,400 3,600 Climbing FlightAware
03:36PM -22.9520 -43.0640 93° East 235 270 5,300 3,300 Climbing FlightAware
03:36PM -22.9370 -43.0340 62° Northeast 229 264 6,900 2,940 Climbing FlightAware
03:37PM -22.9150 -43.0190 32° Northeast 247 284 8,000 2,280 Climbing FlightAware
03:37PM -22.8840 -42.9940 37° Northeast 294 338 9,000 2,460 Climbing FlightAware
03:38PM -22.8400 -42.9520 41° Northeast 326 375 10,900 2,220 Climbing FlightAware
03:38PM -22.8040 -42.9170 42° Northeast 368 423 11,600 1,440 Climbing FlightAware
03:39PM -22.7490 -42.8650 41° Northeast 414 476 12,600 2,220 Climbing FlightAware
03:40PM -22.6900 -42.8070 42° Northeast 423 487 14,600 2,640 Climbing FlightAware
03:41PM -22.6210 -42.7420 41° Northeast 437 503 16,400 2,400 Climbing FlightAware
03:41PM -22.5610 -42.6840 42° Northeast 446 513 18,000 2,400 Climbing FlightAware
03:42PM -22.4930 -42.6180 42° Northeast 453 521 19,800 2,520 Climbing FlightAware
03:43PM -22.4290 -42.5560 42° Northeast 452 520 21,600 2,160 Climbing FlightAware
03:43PM -22.3580 -42.4840 43° Northeast 467 537 22,900 1,860 Climbing FlightAware
03:44PM -22.2950 -42.4190 44° Northeast 471 542 24,300 1,860 Climbing FlightAware
03:45PM -22.2300 -42.3540 43° Northeast 480 552 25,400 1,620 Climbing FlightAware
03:45PM -22.1600 -42.2820 44° Northeast 486 559 26,600 1,080 Climbing FlightAware
03:46PM -22.0920 -42.2140 43° Northeast 487 560 27,000 240 Climbing FlightAware
03:47PM -22.0180 -42.1390 43° Northeast 490 564 27,000  Level FlightAware
03:48PM -21.9530 -42.0740 43° Northeast 488 562 27,000  Level FlightAware
03:48PM -21.8850 -42.0050 43° Northeast 489 563 27,000  Level FlightAware
03:49PM -21.8090 -41.9290 43° Northeast 490 564 27,000  Level FlightAware
03:50PM -21.7440 -41.8630 43° Northeast 493 567 27,000  Level FlightAware
03:50PM -21.6710 -41.7900 43° Northeast 493 567 27,000  Level FlightAware
03:51PM -21.6020 -41.7210 43° Northeast 492 566 27,000  Level FlightAware
03:52PM -21.5250 -41.6440 43° Northeast 491 565 27,000  Level FlightAware
03:52PM -21.4650 -41.5840 43° Northeast 490 564 27,000  Level FlightAware
03:53PM -21.3870 -41.5070 43° Northeast 489 563 27,000 -240 Level FlightAware
03:54PM -21.3240 -41.4440 43° Northeast 473 544 26,700 -300 Descending FlightAware
03:55PM -21.2600 -41.3790 43° Northeast 472 543 26,600 -120 Descending FlightAware
03:55PM -21.2050 -41.3250 42° Northeast 472 543 26,600 -2,820 Level FlightAware
03:56PM -21.2190 -41.3400 225° Southwest 454 522 23,800 -2,640 Descending FlightAware
03:56PM -21.1560 -41.2790 42° Northeast 454 522 23,800  Level FlightAware
03:57PM -21.1030 -41.2280 42° Northeast 454 522 23,800 -2,940 Level FlightAware
03:58PM -21.0320 -41.1540 44° Northeast 438 504 19,200 -4,380 Descending FlightAware
03:59PM -20.9590 -41.0820 43° Northeast 423 487 16,200 -3,300 Descending FlightAware
03:59PM -20.8910 -41.0150 43° Northeast 420 483 14,300 -2,700 Descending FlightAware
04:00PM -20.8330 -40.9580 43° Northeast 409 471 12,600 -2,400 Descending FlightAware
04:01PM -20.7750 -40.8990 44° Northeast 396 456 11,100 -1,500 Descending FlightAware
04:02PM -20.7350 -40.8390 55° Northeast 359 413 10,500 -780 Descending FlightAware
04:02PM -20.7040 -40.7890 56° Northeast 329 379 10,000 -960 Descending FlightAware
04:03PM -20.6870 -40.7640 54° Northeast 324 373 9,500 -1,440 Descending FlightAware
04:03PM -20.6610 -40.7220 57° Northeast 318 366 8,700 -1,920 Descending FlightAware
04:03PM -20.6430 -40.6930 56° Northeast 319 367 7,900 -2,280 Descending FlightAware
04:04PM -20.6200 -40.6570 56° Northeast 314 361 7,200 -1,560 Descending FlightAware
04:04PM -20.5970 -40.6210 56° Northeast 305 351 6,500 -1,320 Descending FlightAware
04:05PM -20.5810 -40.5960 56° Northeast 301 346 6,000 -1,440 Descending FlightAware
04:05PM -20.5580 -40.5600 56° Northeast 293 337 5,200 -1,560 Descending FlightAware
04:06PM -20.5360 -40.5250 56° Northeast 281 323 4,600 -1,440 Descending FlightAware
04:06PM -20.5190 -40.4990 55° Northeast 276 318 4,000 -720 Descending FlightAware
04:07PM -20.4990 -40.4670 56° Northeast 244 281 4,000  Level FlightAware
04:07PM -20.4890 -40.4500 58° Northeast 224 258 4,000 -120 Level FlightAware
04:07PM -20.4720 -40.4270 52° Northeast 212 244 3,900 -240 Descending FlightAware
04:08PM -20.4480 -40.4120 30° Northeast 203 234 3,800 -240 Descending FlightAware
04:08PM -20.4240 -40.3970 30° Northeast 203 234 3,700 -120 Descending FlightAware
04:09PM -20.4030 -40.3830 32° Northeast 190 219 3,700 -540 Level FlightAware
04:09PM -20.3880 -40.3730 32° Northeast 179 206 3,300 -1,200 Descending FlightAware
04:10PM -20.3600 -40.3540 32° Northeast 140 161 2,500 -1,140 Descending FlightAware
04:10PM -20.3530 -40.3500 28° Northeast 129 148 2,300 -720 Descending FlightAware
04:11PM -20.3340 -40.3370 33° Northeast 117 135 1,900 -780 Descending FlightAware
04:11PM -20.3160 -40.3250 32° Northeast 114 131 1,400 -960 Descending FlightAware
04:11PM -20.3100 -40.3210 32° Northeast 116 133 1,200 -720 Descending FlightAware
04:12PM -20.2980 -40.3130 32° Northeast 116 133 900 -720 Descending FlightAware
04:12PM -20.2900 -40.3080 30° Northeast 116 133 700 -780 Descending FlightAware
04:13PM -20.2790 -40.3010 31° Northeast 115 132 400 -600 Descending FlightAware
04:13PM -20.2740 -40.2980 29° Northeast 114 131 300 -420 Descending FlightAware
04:23PM -20.2581 -40.2864 291° West  Level Estimated
04:24PM -20.2581 -40.2864 13° North  Level Estimated
04:25PM -20.2581 -40.2864 13° North  Level Estimated
04:26PM -20.2581 -40.2864 13° North  Level Estimated
04:27PM -20.2581 -40.2864 13° North  Level Estimated
04:28PM -20.2581 -40.2864 13° North  Level Estimated
04:29PM -20.2581 -40.2864 13° North  Level Estimated
04:30PM -20.2581 -40.2864 13° North  Level Estimated
04:31PM -20.2581 -40.2864 13° North  Level Estimated
04:32PM -20.2581 -40.2864 13° North  Level Estimated
04:33PM -20.2581 -40.2864 13° North  Level Estimated
04:34PM -20.2581 -40.2864 13° North  Level Estimated
04:35PM -20.2581 -40.2864 13° North  Level Estimated
04:36PM -20.2581 -40.2864 13° North  Level Estimated
04:37PM -20.2581 -40.2864 13° North  Level Estimated